FBU weather

CLOSED Oslo, Fornebu Airport
Oslo, Oslo, Norway

Public forecast

Using degrees Celsius for public forecast. Weather courtesy of forecast.io.

Current aviation weather report (METAR) for Oslo, Fornebu Airport

Retrieved 2019/11/12 04:20 UTC (21 minutes ago):

ENFB 120420Z AUTO 05028KT 9999NDV SCT031/// BKN120/// 04/M05 Q0998 W///S5

Closest aviation forecast (TAF) to Oslo, Fornebu Airport

Closest forecast is Oslo Gardermoen Airport, 23.0 nm (42.6 km) NE. Retrieved 2019-11-12 00:58 UTC (4 hours ago):

TAF ENGM 112300Z 1200/1224 02008KT 7000 SCT010 BKN015 TEMPO 1200/1209 2500 -SN BR BKN007 PROB30 1202/1206 FZDZ TEMPO 1209/1218 12010KT 2000 SNRA OVC003 TEMPO 1218/1220 1000 SNRA VV002